sensor_id;sensor_type;location;lat;lon;timestamp;pressure;altitude;pressure_sealevel;temperature;humidity
27643;BME280;15053;48.618;10.024;2023-05-22T00:01:04;93930.22;;;18.27;64.52
27643;BME280;15053;48.618;10.024;2023-05-22T00:03:32;93927.34;;;18.17;64.63
27643;BME280;15053;48.618;10.024;2023-05-22T00:05:59;93927.94;;;18.10;64.82
27643;BME280;15053;48.618;10.024;2023-05-22T00:08:26;93931.59;;;18.06;64.95
27643;BME280;15053;48.618;10.024;2023-05-22T00:10:55;93922.50;;;18.03;65.46
27643;BME280;15053;48.618;10.024;2023-05-22T00:13:21;93922.16;;;18.05;65.45
27643;BME280;15053;48.618;10.024;2023-05-22T00:15:48;93918.50;;;18.09;65.28
27643;BME280;15053;48.618;10.024;2023-05-22T00:18:15;93918.25;;;18.14;65.41
27643;BME280;15053;48.618;10.024;2023-05-22T00:20:41;93921.41;;;18.20;65.09
27643;BME280;15053;48.618;10.024;2023-05-22T00:23:08;93915.44;;;18.23;65.19
27643;BME280;15053;48.618;10.024;2023-05-22T00:25:36;93923.84;;;18.28;64.91
27643;BME280;15053;48.618;10.024;2023-05-22T00:28:03;93920.53;;;18.32;64.81
27643;BME280;15053;48.618;10.024;2023-05-22T00:30:30;93920.19;;;18.33;64.89
27643;BME280;15053;48.618;10.024;2023-05-22T00:32:57;93917.22;;;18.35;64.74
27643;BME280;15053;48.618;10.024;2023-05-22T00:35:24;93921.72;;;18.34;65.01
27643;BME280;15053;48.618;10.024;2023-05-22T00:37:50;93913.41;;;18.32;64.96
27643;BME280;15053;48.618;10.024;2023-05-22T00:40:17;93924.63;;;18.29;64.81
27643;BME280;15053;48.618;10.024;2023-05-22T00:42:44;93917.91;;;18.16;64.94
27643;BME280;15053;48.618;10.024;2023-05-22T00:45:13;93920.13;;;17.98;65.05
27643;BME280;15053;48.618;10.024;2023-05-22T00:47:40;93907.03;;;17.71;65.17
27643;BME280;15053;48.618;10.024;2023-05-22T00:50:09;93920.94;;;17.55;65.88
27643;BME280;15053;48.618;10.024;2023-05-22T00:52:41;93923.44;;;17.36;66.32
27643;BME280;15053;48.618;10.024;2023-05-22T00:55:09;93921.53;;;17.21;66.71
27643;BME280;15053;48.618;10.024;2023-05-22T00:57:37;93903.41;;;17.04;67.38
27643;BME280;15053;48.618;10.024;2023-05-22T01:00:08;93906.16;;;16.95;67.50
27643;BME280;15053;48.618;10.024;2023-05-22T01:02:38;93920.22;;;16.87;67.78
27643;BME280;15053;48.618;10.024;2023-05-22T01:05:05;93906.59;;;16.70;68.37
27643;BME280;15053;48.618;10.024;2023-05-22T01:07:33;93916.59;;;16.64;68.65
27643;BME280;15053;48.618;10.024;2023-05-22T01:10:04;93903.41;;;16.52;68.95
27643;BME280;15053;48.618;10.024;2023-05-22T01:12:46;93913.41;;;16.46;69.25
27643;BME280;15053;48.618;10.024;2023-05-22T01:15:28;93915.81;;;16.39;69.66
27643;BME280;15053;48.618;10.024;2023-05-22T01:20:37;93914.63;;;16.25;70.34
27643;BME280;15053;48.618;10.024;2023-05-22T01:28:22;93916.72;;;16.19;70.98
27643;BME280;15053;48.618;10.024;2023-05-22T01:31:00;93915.81;;;16.15;71.04
27643;BME280;15053;48.618;10.024;2023-05-22T01:33:32;93919.78;;;16.09;71.07
27643;BME280;15053;48.618;10.024;2023-05-22T01:36:01;93927.00;;;16.00;71.11
27643;BME280;15053;48.618;10.024;2023-05-22T01:38:29;93931.72;;;15.94;71.68
27643;BME280;15053;48.618;10.024;2023-05-22T01:40:57;93926.78;;;15.93;71.94
27643;BME280;15053;48.618;10.024;2023-05-22T01:43:24;93927.88;;;15.92;71.88
27643;BME280;15053;48.618;10.024;2023-05-22T01:45:51;93928.53;;;15.89;72.28
27643;BME280;15053;48.618;10.024;2023-05-22T01:48:18;93935.06;;;15.83;72.28
27643;BME280;15053;48.618;10.024;2023-05-22T01:50:46;93934.22;;;15.79;72.48
27643;BME280;15053;48.618;10.024;2023-05-22T01:53:49;93934.53;;;15.77;72.62
27643;BME280;15053;48.618;10.024;2023-05-22T01:56:23;93938.03;;;15.81;72.62
27643;BME280;15053;48.618;10.024;2023-05-22T01:59:16;93938.13;;;15.85;72.82
27643;BME280;15053;48.618;10.024;2023-05-22T02:01:47;93940.34;;;15.83;72.46
27643;BME280;15053;48.618;10.024;2023-05-22T02:04:18;93941.19;;;15.75;72.41
27643;BME280;15053;48.618;10.024;2023-05-22T02:06:45;93944.69;;;15.67;72.72
27643;BME280;15053;48.618;10.024;2023-05-22T02:09:14;93942.50;;;15.57;72.96
27643;BME280;15053;48.618;10.024;2023-05-22T02:11:42;93947.59;;;15.53;73.19
27643;BME280;15053;48.618;10.024;2023-05-22T02:14:09;93941.34;;;15.46;73.77
27643;BME280;15053;48.618;10.024;2023-05-22T02:16:37;93946.31;;;15.38;73.74
27643;BME280;15053;48.618;10.024;2023-05-22T02:19:04;93949.28;;;15.37;74.22
27643;BME280;15053;48.618;10.024;2023-05-22T02:21:32;93948.22;;;15.38;74.29
27643;BME280;15053;48.618;10.024;2023-05-22T02:24:00;93948.22;;;15.38;74.49
27643;BME280;15053;48.618;10.024;2023-05-22T02:26:27;93935.81;;;15.38;74.44
27643;BME280;15053;48.618;10.024;2023-05-22T02:28:54;93939.56;;;15.38;74.75
27643;BME280;15053;48.618;10.024;2023-05-22T02:31:20;93942.84;;;15.34;74.77
27643;BME280;15053;48.618;10.024;2023-05-22T02:33:47;93941.94;;;15.30;74.58
27643;BME280;15053;48.618;10.024;2023-05-22T02:36:13;93938.44;;;15.26;74.92
27643;BME280;15053;48.618;10.024;2023-05-22T02:38:40;93937.88;;;15.21;74.67
27643;BME280;15053;48.618;10.024;2023-05-22T02:41:07;93934.97;;;15.14;74.90
27643;BME280;15053;48.618;10.024;2023-05-22T02:43:33;93935.53;;;15.07;75.41
27643;BME280;15053;48.618;10.024;2023-05-22T02:46:00;93938.78;;;15.04;75.53
27643;BME280;15053;48.618;10.024;2023-05-22T02:48:26;93937.56;;;15.02;75.65
27643;BME280;15053;48.618;10.024;2023-05-22T02:50:54;93933.97;;;15.06;75.34
27643;BME280;15053;48.618;10.024;2023-05-22T02:53:21;93929.16;;;15.08;75.80
27643;BME280;15053;48.618;10.024;2023-05-22T02:55:47;93936.41;;;15.11;75.50
27643;BME280;15053;48.618;10.024;2023-05-22T02:58:14;93937.94;;;15.12;75.65
27643;BME280;15053;48.618;10.024;2023-05-22T03:00:40;93938.72;;;15.13;75.41
27643;BME280;15053;48.618;10.024;2023-05-22T03:03:07;93936.41;;;15.11;75.43
27643;BME280;15053;48.618;10.024;2023-05-22T03:05:34;93930.28;;;15.07;75.12
27643;BME280;15053;48.618;10.024;2023-05-22T03:08:01;93936.47;;;15.03;75.16
27643;BME280;15053;48.618;10.024;2023-05-22T03:10:28;93936.66;;;14.98;75.70
27643;BME280;15053;48.618;10.024;2023-05-22T03:12:55;93938.28;;;14.90;75.91
27643;BME280;15053;48.618;10.024;2023-05-22T03:15:21;93941.53;;;14.87;75.94
27643;BME280;15053;48.618;10.024;2023-05-22T03:17:51;93931.69;;;14.84;76.74
27643;BME280;15053;48.618;10.024;2023-05-22T03:20:18;93934.44;;;14.88;76.38
27643;BME280;15053;48.618;10.024;2023-05-22T03:22:44;93944.44;;;14.94;76.70
27643;BME280;15053;48.618;10.024;2023-05-22T03:25:11;93938.84;;;14.96;76.30
27643;BME280;15053;48.618;10.024;2023-05-22T03:27:38;93936.09;;;14.92;76.32
27643;BME280;15053;48.618;10.024;2023-05-22T03:30:07;93945.38;;;14.90;76.62
27643;BME280;15053;48.618;10.024;2023-05-22T03:32:35;93947.22;;;14.89;76.27
27643;BME280;15053;48.618;10.024;2023-05-22T03:35:04;93939.88;;;14.83;76.33
27643;BME280;15053;48.618;10.024;2023-05-22T03:37:31;93940.38;;;14.76;76.31
27643;BME280;15053;48.618;10.024;2023-05-22T03:39:57;93944.28;;;14.70;76.53
27643;BME280;15053;48.618;10.024;2023-05-22T03:42:27;93937.72;;;14.64;76.85
27643;BME280;15053;48.618;10.024;2023-05-22T03:44:55;93940.50;;;14.59;76.68
27643;BME280;15053;48.618;10.024;2023-05-22T03:47:23;93939.00;;;14.58;77.42
27643;BME280;15053;48.618;10.024;2023-05-22T03:49:50;93939.75;;;14.58;77.48
27643;BME280;15053;48.618;10.024;2023-05-22T03:52:16;93942.06;;;14.60;77.84
27643;BME280;15053;48.618;10.024;2023-05-22T03:54:43;93940.66;;;14.62;77.96
27643;BME280;15053;48.618;10.024;2023-05-22T03:57:09;93940.59;;;14.71;77.68
27643;BME280;15053;48.618;10.024;2023-05-22T03:59:36;93940.38;;;14.76;77.43
27643;BME280;15053;48.618;10.024;2023-05-22T04:02:03;93953.78;;;14.83;77.35
27643;BME280;15053;48.618;10.024;2023-05-22T04:04:32;93950.47;;;14.86;77.30
27643;BME280;15053;48.618;10.024;2023-05-22T04:06:59;93953.56;;;14.88;77.00
27643;BME280;15053;48.618;10.024;2023-05-22T04:09:30;93953.25;;;14.90;77.18
27643;BME280;15053;48.618;10.024;2023-05-22T04:11:56;93958.03;;;14.88;77.63
27643;BME280;15053;48.618;10.024;2023-05-22T04:14:24;93960.34;;;14.89;77.30
27643;BME280;15053;48.618;10.024;2023-05-22T04:16:51;93951.38;;;14.90;76.83
27643;BME280;15053;48.618;10.024;2023-05-22T04:19:17;93952.31;;;14.94;76.89
27643;BME280;15053;48.618;10.024;2023-05-22T04:21:44;93953.81;;;14.95;76.99
27643;BME280;15053;48.618;10.024;2023-05-22T04:24:11;93954.44;;;14.92;76.93
27643;BME280;15053;48.618;10.024;2023-05-22T04:26:38;93956.44;;;14.95;77.22
27643;BME280;15053;48.618;10.024;2023-05-22T04:29:07;93956.44;;;14.95;77.50
27643;BME280;15053;48.618;10.024;2023-05-22T04:31:35;93965.22;;;14.99;77.26
27643;BME280;15053;48.618;10.024;2023-05-22T04:34:03;93962.38;;;15.04;77.37
27643;BME280;15053;48.618;10.024;2023-05-22T04:36:30;93959.56;;;15.09;77.64
27643;BME280;15053;48.618;10.024;2023-05-22T04:38:57;93969.56;;;15.16;77.29
27643;BME280;15053;48.618;10.024;2023-05-22T04:41:25;93965.19;;;15.20;77.34
27643;BME280;15053;48.618;10.024;2023-05-22T04:43:52;93966.53;;;15.26;77.62
27643;BME280;15053;48.618;10.024;2023-05-22T04:46:19;93968.31;;;15.34;77.20
27643;BME280;15053;48.618;10.024;2023-05-22T04:48:46;93971.94;;;15.42;77.23
27643;BME280;15053;48.618;10.024;2023-05-22T04:51:14;93967.84;;;15.53;76.92
27643;BME280;15053;48.618;10.024;2023-05-22T04:53:41;93966.03;;;15.65;76.97
27643;BME280;15053;48.618;10.024;2023-05-22T04:56:07;93962.53;;;15.73;76.66
27643;BME280;15053;48.618;10.024;2023-05-22T04:58:34;93955.44;;;15.74;76.77
27643;BME280;15053;48.618;10.024;2023-05-22T05:01:03;93975.59;;;15.94;76.70
27643;BME280;15053;48.618;10.024;2023-05-22T05:03:30;93973.19;;;16.01;76.37
27643;BME280;15053;48.618;10.024;2023-05-22T05:05:57;93970.44;;;16.10;76.18
27643;BME280;15053;48.618;10.024;2023-05-22T05:08:26;93966.22;;;16.17;76.18
27643;BME280;15053;48.618;10.024;2023-05-22T05:10:52;93975.06;;;16.25;76.15
27643;BME280;15053;48.618;10.024;2023-05-22T05:13:19;93968.94;;;16.33;75.72
27643;BME280;15053;48.618;10.024;2023-05-22T05:15:46;93959.75;;;16.39;75.41
27643;BME280;15053;48.618;10.024;2023-05-22T05:18:12;93971.91;;;16.56;75.56
27643;BME280;15053;48.618;10.024;2023-05-22T05:20:40;93976.28;;;16.64;75.15
27643;BME280;15053;48.618;10.024;2023-05-22T05:23:07;93978.22;;;16.79;74.90
27643;BME280;15053;48.618;10.024;2023-05-22T05:25:35;93977.00;;;16.88;74.81
27643;BME280;15053;48.618;10.024;2023-05-22T05:28:04;93972.72;;;16.96;74.67
27643;BME280;15053;48.618;10.024;2023-05-22T05:30:37;93979.41;;;17.05;74.38
27643;BME280;15053;48.618;10.024;2023-05-22T05:33:24;93977.06;;;17.16;74.29
27643;BME280;15053;48.618;10.024;2023-05-22T05:36:14;93976.16;;;17.24;73.90
27643;BME280;15053;48.618;10.024;2023-05-22T05:38:43;93980.28;;;17.25;74.00
27643;BME280;15053;48.618;10.024;2023-05-22T05:41:11;93977.66;;;17.25;74.04
27643;BME280;15053;48.618;10.024;2023-05-22T05:43:37;93977.22;;;17.23;74.15
27643;BME280;15053;48.618;10.024;2023-05-22T05:46:06;93976.03;;;17.21;74.24
27643;BME280;15053;48.618;10.024;2023-05-22T05:48:33;93975.28;;;17.20;74.15
27643;BME280;15053;48.618;10.024;2023-05-22T05:51:00;93972.41;;;17.25;74.25
27643;BME280;15053;48.618;10.024;2023-05-22T05:53:31;93977.97;;;17.36;74.02
27643;BME280;15053;48.618;10.024;2023-05-22T05:55:58;93975.88;;;17.41;73.73
27643;BME280;15053;48.618;10.024;2023-05-22T05:58:26;93971.88;;;17.47;72.95
27643;BME280;15053;48.618;10.024;2023-05-22T06:01:02;93977.66;;;17.53;72.73
27643;BME280;15053;48.618;10.024;2023-05-22T06:03:29;93973.81;;;17.62;72.24
27643;BME280;15053;48.618;10.024;2023-05-22T06:06:06;93970.69;;;17.73;72.00
27643;BME280;15053;48.618;10.024;2023-05-22T06:08:51;93968.66;;;17.82;71.86
27643;BME280;15053;48.618;10.024;2023-05-22T06:11:25;93977.25;;;17.94;71.54
27643;BME280;15053;48.618;10.024;2023-05-22T06:13:53;93980.59;;;18.07;71.06
27643;BME280;15053;48.618;10.024;2023-05-22T06:16:19;93975.56;;;18.17;70.42
27643;BME280;15053;48.618;10.024;2023-05-22T06:18:46;93970.44;;;18.24;69.77
27643;BME280;15053;48.618;10.024;2023-05-22T06:21:14;93976.69;;;18.32;69.23
27643;BME280;15053;48.618;10.024;2023-05-22T06:23:41;93988.91;;;18.40;69.08
27643;BME280;15053;48.618;10.024;2023-05-22T06:26:07;93981.50;;;18.46;68.51
27643;BME280;15053;48.618;10.024;2023-05-22T06:28:37;93975.47;;;18.45;68.51
27643;BME280;15053;48.618;10.024;2023-05-22T06:31:04;93982.47;;;18.53;68.64
27643;BME280;15053;48.618;10.024;2023-05-22T06:33:31;93972.47;;;18.62;68.10
27643;BME280;15053;48.618;10.024;2023-05-22T06:36:00;93980.97;;;18.71;67.98
27643;BME280;15053;48.618;10.024;2023-05-22T06:38:26;93973.47;;;18.73;67.31
27643;BME280;15053;48.618;10.024;2023-05-22T06:40:53;93966.41;;;18.77;67.46
27643;BME280;15053;48.618;10.024;2023-05-22T06:43:23;93975.22;;;18.85;67.72
27643;BME280;15053;48.618;10.024;2023-05-22T06:45:57;93970.63;;;18.98;67.79
27643;BME280;15053;48.618;10.024;2023-05-22T06:48:36;93973.19;;;19.13;66.88
27643;BME280;15053;48.618;10.024;2023-05-22T06:51:07;93976.03;;;19.24;66.46
27643;BME280;15053;48.618;10.024;2023-05-22T06:53:38;93967.03;;;19.25;66.45
27643;BME280;15053;48.618;10.024;2023-05-22T06:56:10;93974.03;;;19.36;66.13
27643;BME280;15053;48.618;10.024;2023-05-22T06:58:47;93983.59;;;19.41;65.88
27643;BME280;15053;48.618;10.024;2023-05-22T07:01:14;93979.13;;;19.45;65.31
27643;BME280;15053;48.618;10.024;2023-05-22T07:03:48;93979.97;;;19.49;65.27
27643;BME280;15053;48.618;10.024;2023-05-22T07:06:33;93977.03;;;19.54;65.02
27643;BME280;15053;48.618;10.024;2023-05-22T07:09:04;93983.97;;;19.62;65.30
27643;BME280;15053;48.618;10.024;2023-05-22T07:11:31;93983.41;;;19.72;66.05
27643;BME280;15053;48.618;10.024;2023-05-22T07:13:59;93985.81;;;19.81;65.73
27643;BME280;15053;48.618;10.024;2023-05-22T07:16:26;93985.59;;;19.89;65.05
27643;BME280;15053;48.618;10.024;2023-05-22T07:18:55;93992.13;;;19.95;64.77
27643;BME280;15053;48.618;10.024;2023-05-22T07:21:21;93993.78;;;20.03;64.89
27643;BME280;15053;48.618;10.024;2023-05-22T07:23:51;93999.22;;;20.11;64.44
27643;BME280;15053;48.618;10.024;2023-05-22T07:26:19;93992.91;;;20.19;64.43
27643;BME280;15053;48.618;10.024;2023-05-22T07:28:55;93991.19;;;20.26;64.20
27643;BME280;15053;48.618;10.024;2023-05-22T07:31:22;93991.66;;;20.32;63.76
27643;BME280;15053;48.618;10.024;2023-05-22T07:33:50;93998.13;;;20.34;63.83
27643;BME280;15053;48.618;10.024;2023-05-22T07:36:16;93998.19;;;20.38;64.21
27643;BME280;15053;48.618;10.024;2023-05-22T07:38:44;93989.97;;;20.46;64.02
27643;BME280;15053;48.618;10.024;2023-05-22T07:41:12;93993.91;;;20.56;63.66
27643;BME280;15053;48.618;10.024;2023-05-22T07:43:39;94003.94;;;20.70;63.54
27643;BME280;15053;48.618;10.024;2023-05-22T07:46:07;93999.19;;;20.82;63.40
27643;BME280;15053;48.618;10.024;2023-05-22T07:48:42;94003.94;;;20.96;63.02
27643;BME280;15053;48.618;10.024;2023-05-22T07:51:09;93999.22;;;21.08;62.60
27643;BME280;15053;48.618;10.024;2023-05-22T07:53:36;93996.25;;;21.13;61.57
27643;BME280;15053;48.618;10.024;2023-05-22T07:56:03;93990.25;;;21.16;61.81
27643;BME280;15053;48.618;10.024;2023-05-22T07:58:31;93999.88;;;21.28;61.83
27643;BME280;15053;48.618;10.024;2023-05-22T08:00:59;93995.41;;;21.36;61.71
27643;BME280;15053;48.618;10.024;2023-05-22T08:03:27;93992.03;;;21.39;61.20
27643;BME280;15053;48.618;10.024;2023-05-22T08:05:53;93993.69;;;21.50;61.60
27643;BME280;15053;48.618;10.024;2023-05-22T08:08:20;93995.03;;;21.67;60.97
27643;BME280;15053;48.618;10.024;2023-05-22T08:10:47;93989.41;;;21.72;60.78
27643;BME280;15053;48.618;10.024;2023-05-22T08:13:29;93985.00;;;21.87;60.65
27643;BME280;15053;48.618;10.024;2023-05-22T08:15:56;93990.44;;;21.97;60.33
27643;BME280;15053;48.618;10.024;2023-05-22T08:18:27;93987.88;;;22.08;59.33
27643;BME280;15053;48.618;10.024;2023-05-22T08:20:55;93978.47;;;22.14;58.14
27643;BME280;15053;48.618;10.024;2023-05-22T08:23:21;93991.53;;;22.33;57.65
27643;BME280;15053;48.618;10.024;2023-05-22T08:25:48;93986.31;;;22.44;57.36
27643;BME280;15053;48.618;10.024;2023-05-22T08:28:15;93997.72;;;22.51;56.60
27643;BME280;15053;48.618;10.024;2023-05-22T08:30:42;93986.38;;;22.54;56.40
27643;BME280;15053;48.618;10.024;2023-05-22T08:33:08;93989.91;;;22.65;56.40
27643;BME280;15053;48.618;10.024;2023-05-22T08:35:35;93989.97;;;22.76;57.26
27643;BME280;15053;48.618;10.024;2023-05-22T08:38:02;93987.03;;;22.88;56.66
27643;BME280;15053;48.618;10.024;2023-05-22T08:40:33;93994.28;;;22.98;55.32
27643;BME280;15053;48.618;10.024;2023-05-22T08:43:01;93984.41;;;22.95;54.73
27643;BME280;15053;48.618;10.024;2023-05-22T08:45:28;93982.94;;;23.01;54.35
27643;BME280;15053;48.618;10.024;2023-05-22T08:47:56;93983.75;;;23.12;55.63
27643;BME280;15053;48.618;10.024;2023-05-22T08:50:24;93972.38;;;23.15;55.17
27643;BME280;15053;48.618;10.024;2023-05-22T08:52:51;93978.84;;;23.25;54.91
27643;BME280;15053;48.618;10.024;2023-05-22T08:55:22;93986.09;;;23.28;54.62
27643;BME280;15053;48.618;10.024;2023-05-22T08:57:49;93989.09;;;23.23;53.91
27643;BME280;15053;48.618;10.024;2023-05-22T09:00:17;93991.72;;;23.16;54.19
27643;BME280;15053;48.618;10.024;2023-05-22T09:02:45;93975.78;;;23.16;54.23
27643;BME280;15053;48.618;10.024;2023-05-22T09:05:12;93979.25;;;23.27;54.86
27643;BME280;15053;48.618;10.024;2023-05-22T09:07:39;93978.56;;;23.40;54.38
27643;BME280;15053;48.618;10.024;2023-05-22T09:10:06;93976.31;;;23.42;54.55
27643;BME280;15053;48.618;10.024;2023-05-22T09:12:33;93983.19;;;23.51;53.89
27643;BME280;15053;48.618;10.024;2023-05-22T09:15:09;93979.41;;;23.55;53.57
27643;BME280;15053;48.618;10.024;2023-05-22T09:17:39;93985.50;;;23.63;52.84
27643;BME280;15053;48.618;10.024;2023-05-22T09:20:07;93979.81;;;23.64;51.69
27643;BME280;15053;48.618;10.024;2023-05-22T09:22:36;93988.56;;;23.72;51.61
27643;BME280;15053;48.618;10.024;2023-05-22T09:25:04;93985.16;;;23.82;51.21
27643;BME280;15053;48.618;10.024;2023-05-22T09:27:30;93986.34;;;23.91;51.34
27643;BME280;15053;48.618;10.024;2023-05-22T09:29:57;93980.28;;;24.05;51.60
27643;BME280;15053;48.618;10.024;2023-05-22T09:32:28;93978.41;;;24.23;50.61
27643;BME280;15053;48.618;10.024;2023-05-22T09:35:00;93980.72;;;24.42;50.65
27643;BME280;15053;48.618;10.024;2023-05-22T09:37:32;93980.34;;;24.54;50.02
27643;BME280;15053;48.618;10.024;2023-05-22T09:40:03;93976.16;;;24.60;50.68
27643;BME280;15053;48.618;10.024;2023-05-22T09:42:34;93980.34;;;24.72;50.66
27643;BME280;15053;48.618;10.024;2023-05-22T09:45:05;93982.97;;;24.76;51.17
27643;BME280;15053;48.618;10.024;2023-05-22T09:47:32;93987.19;;;24.73;51.31
27643;BME280;15053;48.618;10.024;2023-05-22T09:50:03;93981.47;;;24.71;52.07
27643;BME280;15053;48.618;10.024;2023-05-22T09:52:32;93987.19;;;24.77;50.45
27643;BME280;15053;48.618;10.024;2023-05-22T09:55:02;93971.19;;;24.77;50.39
27643;BME280;15053;48.618;10.024;2023-05-22T09:57:50;93979.56;;;24.79;50.52
27643;BME280;15053;48.618;10.024;2023-05-22T10:00:17;93974.25;;;24.82;51.21
27643;BME280;15053;48.618;10.024;2023-05-22T10:03:07;93981.88;;;24.87;51.57
27643;BME280;15053;48.618;10.024;2023-05-22T10:05:35;93986.81;;;24.96;52.39
27643;BME280;15053;48.618;10.024;2023-05-22T10:08:23;93987.16;;;24.98;51.55
27643;BME280;15053;48.618;10.024;2023-05-22T10:10:51;93987.94;;;25.02;51.86
27643;BME280;15053;48.618;10.024;2023-05-22T10:13:19;93984.88;;;25.03;51.86
27643;BME280;15053;48.618;10.024;2023-05-22T10:15:49;93986.41;;;25.01;51.84
27643;BME280;15053;48.618;10.024;2023-05-22T10:18:16;93984.88;;;25.00;52.21
27643;BME280;15053;48.618;10.024;2023-05-22T10:20:43;93981.06;;;25.04;51.78
27643;BME280;15053;48.618;10.024;2023-05-22T10:23:13;93987.91;;;25.16;51.57
27643;BME280;15053;48.618;10.024;2023-05-22T10:25:42;93979.50;;;25.21;51.47
27643;BME280;15053;48.618;10.024;2023-05-22T10:28:09;93978.31;;;25.40;52.52
27643;BME280;15053;48.618;10.024;2023-05-22T10:33:33;93972.47;;;25.69;50.88
27643;BME280;15053;48.618;10.024;2023-05-22T10:36:07;93978.47;;;25.88;51.38
27643;BME280;15053;48.618;10.024;2023-05-22T10:38:52;93971.59;;;25.94;50.85
27643;BME280;15053;48.618;10.024;2023-05-22T10:41:26;93965.47;;;25.93;50.47
27643;BME280;15053;48.618;10.024;2023-05-22T10:43:55;93971.13;;;26.06;50.32
27643;BME280;15053;48.618;10.024;2023-05-22T10:46:22;93968.06;;;26.14;49.82
27643;BME280;15053;48.618;10.024;2023-05-22T10:48:51;93973.34;;;26.18;49.34
27643;BME280;15053;48.618;10.024;2023-05-22T10:51:20;93965.34;;;26.21;49.12
27643;BME280;15053;48.618;10.024;2023-05-22T10:54:05;93962.53;;;26.39;48.03
27643;BME280;15053;48.618;10.024;2023-05-22T10:56:33;93968.59;;;26.47;47.12
27643;BME280;15053;48.618;10.024;2023-05-22T10:59:02;93964.47;;;26.35;46.69
27643;BME280;15053;48.618;10.024;2023-05-22T11:01:33;93965.63;;;26.34;46.79
27643;BME280;15053;48.618;10.024;2023-05-22T11:04:11;93962.91;;;26.37;47.83
27643;BME280;15053;48.618;10.024;2023-05-22T11:07:01;93962.00;;;26.58;48.21
27643;BME280;15053;48.618;10.024;2023-05-22T11:09:31;93957.28;;;26.73;47.73
27643;BME280;15053;48.618;10.024;2023-05-22T11:15:07;93953.25;;;26.99;46.38
27643;BME280;15053;48.618;10.024;2023-05-22T11:17:46;93953.81;;;27.17;46.09
27643;BME280;15053;48.618;10.024;2023-05-22T11:22:49;93950.19;;;27.34;44.81
27643;BME280;15053;48.618;10.024;2023-05-22T11:25:18;93949.00;;;27.38;44.62
27643;BME280;15053;48.618;10.024;2023-05-22T11:27:46;93947.78;;;27.46;44.49
27643;BME280;15053;48.618;10.024;2023-05-22T11:30:14;93941.00;;;27.69;44.83
27643;BME280;15053;48.618;10.024;2023-05-22T11:32:43;93940.78;;;27.83;44.49
27643;BME280;15053;48.618;10.024;2023-05-22T11:35:17;93943.06;;;27.84;44.18
27643;BME280;15053;48.618;10.024;2023-05-22T11:37:44;93939.13;;;27.92;43.75
27643;BME280;15053;48.618;10.024;2023-05-22T11:40:15;93938.34;;;27.95;42.87
27643;BME280;15053;48.618;10.024;2023-05-22T11:42:43;93937.44;;;28.05;41.98
27643;BME280;15053;48.618;10.024;2023-05-22T11:45:10;93937.94;;;28.24;42.38
27643;BME280;15053;48.618;10.024;2023-05-22T11:47:37;93935.63;;;28.49;42.09
27643;BME280;15053;48.618;10.024;2023-05-22T11:50:04;93932.69;;;28.66;40.78
27643;BME280;15053;48.618;10.024;2023-05-22T11:52:33;93924.34;;;28.84;40.57
27643;BME280;15053;48.618;10.024;2023-05-22T11:55:00;93928.97;;;29.03;41.14
27643;BME280;15053;48.618;10.024;2023-05-22T11:57:27;93921.06;;;29.16;40.73
27643;BME280;15053;48.618;10.024;2023-05-22T11:59:53;93924.78;;;29.22;40.13
27643;BME280;15053;48.618;10.024;2023-05-22T12:02:20;93927.75;;;29.28;39.51
27643;BME280;15053;48.618;10.024;2023-05-22T12:04:52;93919.44;;;29.42;39.65
27643;BME280;15053;48.618;10.024;2023-05-22T12:07:19;93916.59;;;29.49;39.62
27643;BME280;15053;48.618;10.024;2023-05-22T12:09:46;93913.59;;;29.63;38.65
27643;BME280;15053;48.618;10.024;2023-05-22T12:12:14;93909.59;;;29.71;38.70
27643;BME280;15053;48.618;10.024;2023-05-22T12:14:44;93907.56;;;29.75;37.83
27643;BME280;15053;48.618;10.024;2023-05-22T12:17:12;93906.31;;;29.83;38.67
27643;BME280;15053;48.618;10.024;2023-05-22T12:19:39;93905.19;;;29.80;38.43
27643;BME280;15053;48.618;10.024;2023-05-22T12:22:07;93906.31;;;29.83;37.44
27643;BME280;15053;48.618;10.024;2023-05-22T12:24:38;93902.38;;;29.68;36.98
27643;BME280;15053;48.618;10.024;2023-05-22T12:27:09;93893.16;;;29.69;37.20
27643;BME280;15053;48.618;10.024;2023-05-22T12:29:39;93904.28;;;29.87;37.55
27643;BME280;15053;48.618;10.024;2023-05-22T12:32:10;93906.66;;;30.01;37.56
27643;BME280;15053;48.618;10.024;2023-05-22T12:34:45;93912.97;;;30.27;36.21
27643;BME280;15053;48.618;10.024;2023-05-22T12:37:19;93906.66;;;30.33;34.86
27643;BME280;15053;48.618;10.024;2023-05-22T12:39:56;93894.13;;;30.11;34.74
27643;BME280;15053;48.618;10.024;2023-05-22T12:42:24;93896.56;;;30.05;36.28
27643;BME280;15053;48.618;10.024;2023-05-22T12:44:55;93901.03;;;30.12;35.02
27643;BME280;15053;48.618;10.024;2023-05-22T12:47:23;93916.06;;;30.09;35.43
27643;BME280;15053;48.618;10.024;2023-05-22T12:49:50;93899.59;;;29.91;35.41
27643;BME280;15053;48.618;10.024;2023-05-22T12:52:17;93900.13;;;30.02;35.80
27643;BME280;15053;48.618;10.024;2023-05-22T12:54:43;93915.22;;;30.12;35.27
27643;BME280;15053;48.618;10.024;2023-05-22T12:57:10;93906.19;;;30.38;34.69
27643;BME280;15053;48.618;10.024;2023-05-22T12:59:36;93898.69;;;30.62;33.80
27643;BME280;15053;48.618;10.024;2023-05-22T13:02:03;93893.31;;;30.91;34.83
27643;BME280;15053;48.618;10.024;2023-05-22T13:04:30;93893.44;;;31.16;34.34
27643;BME280;15053;48.618;10.024;2023-05-22T13:06:57;93895.03;;;31.42;33.18
27643;BME280;15053;48.618;10.024;2023-05-22T13:09:24;93899.91;;;31.60;32.95
27643;BME280;15053;48.618;10.024;2023-05-22T13:11:50;93901.22;;;31.56;32.87
27643;BME280;15053;48.618;10.024;2023-05-22T13:14:17;93894.78;;;30.95;32.95
27643;BME280;15053;48.618;10.024;2023-05-22T13:16:43;93893.66;;;30.48;33.53